Latest Weather Observations for Coldstream

IDV60901

Issued at 11:11 pm EDT Thursday 29 January 2015 (issued every 10 minutes, with the page automatically refreshed every 10 minutes)

About weather observations | Map of Melbourne area stations | Latest observations for Melbourne area | Other Formats
Station Details ID: 086383 Name: COLDSTREAM Lat: -37.72 Lon: 145.41 Height: 83.0 m
Data from the previous 72 hours. | See also: Recent months at Coldstream
Date/Time
EDT
Tmp

°C
App
Tmp
°C
Dew
Point
°C
Rel
Hum
%
Delta-T

°C
Wind Press
QNH
hPa
Press
MSL
hPa
Rain
since
9 am
mm
Dir
 
Spd
km/h
Gust
km/h
Spd
kts
Gust
kts
29/11:00pm 13.4 11.6 9.3 76 2.1 SE 9 17 5 9 1017.9 1017.6 0.0
29/10:30pm 13.5 11.6 9.2 75 2.2 SE 9 13 5 7 1018.0 1017.7 0.0
29/10:00pm 14.4 13.1 9.8 74 2.4 SSE 7 13 4 7 1018.3 1018.0 0.0
29/09:30pm 15.0 13.2 9.6 70 2.8 SSE 9 13 5 7 1018.0 1017.7 0.0
29/09:00pm 15.4 13.2 9.5 68 3.1 SE 11 17 6 9 1017.9 1017.6 0.0
29/08:30pm 15.6 13.4 9.5 67 3.2 SSE 11 15 6 8 1017.7 1017.4 0.0
29/08:00pm 16.4 13.2 9.8 65 3.5 SSE 17 28 9 15 1017.5 1017.2 0.0
29/07:30pm 16.9 13.1 9.8 63 3.7 SE 20 33 11 18 1017.3 1017.0 0.0
29/07:00pm 18.2 12.5 9.8 58 4.5 SE 30 43 16 23 1017.0 1016.7 0.0
29/06:30pm 19.3 14.2 9.2 52 5.3 SE 26 41 14 22 1016.6 1016.3 0.0
29/05:30pm 21.5 16.5 8.1 42 7.0 SSE 24 37 13 20 1016.5 1016.2 0.0
29/05:00pm 20.3 15.0 8.6 47 6.1 SSE 26 37 14 20 1017.0 1016.7 0.0
29/04:30pm 21.2 15.6 7.1 40 7.2 SSE 26 39 14 21 1017.3 1017.0 0.0
29/04:00pm 22.5 17.4 7.5 38 7.8 SSE 24 39 13 21 1017.4 1017.1 0.0
29/03:30pm 21.9 17.3 8.1 41 7.3 SSE 22 35 12 19 1017.5 1017.2 0.0
29/03:00pm 22.0 17.4 8.2 41 7.3 SSE 22 41 12 22 1017.6 1017.3 0.0
29/02:30pm 23.1 18.8 8.0 38 8.0 SSE 20 35 11 19 1018.1 1017.8 0.0
29/02:00pm 21.0 16.2 7.3 41 7.0 SSE 22 32 12 17 1018.2 1017.9 0.0
29/01:30pm 22.0 17.5 6.3 36 8.0 SSE 19 30 10 16 1018.4 1018.1 0.0
29/01:00pm 20.6 16.3 7.9 44 6.6 SSE 20 35 11 19 1019.0 1018.8 0.0
29/12:30pm 21.3 17.0 7.9 42 7.0 SSE 20 33 11 18 1019.3 1019.1 0.0
29/12:00pm 20.3 15.8 6.3 40 7.0 SSE 19 32 10 17 1019.4 1019.2 0.0
29/11:30am 20.5 15.9 6.4 40 7.1 SSE 20 35 11 19 1019.9 1019.7 0.0
29/11:00am 19.8 15.0 7.5 45 6.3 SE 22 33 12 18 1020.1 1019.9 0.0
29/10:30am 19.1 14.6 8.4 50 5.6 SSE 22 32 12 17 1020.1 1019.9 0.0
29/10:00am 18.1 13.9 8.4 53 5.0 SE 20 35 11 19 1020.1 1019.9 0.0
29/09:30am 16.6 13.3 8.1 57 4.3 SE 15 26 8 14 1020.4 1020.2 0.0
29/08:30am 15.6 12.3 9.5 67 3.2 SE 17 26 9 14 1020.2 1020.0 0.0
29/08:00am 14.5 11.6 9.7 73 2.5 ESE 15 20 8 11 1020.1 1019.9 0.0
29/07:30am 13.0 11.5 9.3 78 1.9 SE 7 19 4 10 1019.9 1019.7 0.0
29/07:00am 11.5 9.2 8.9 84 1.3 SE 11 15 6 8 1019.6 1019.4 0.0
29/06:30am 10.9 8.8 8.1 83 1.4 SE 9 13 5 7 1019.4 1019.2 0.0
29/05:30am 12.1 10.1 8.6 79 1.7 SSE 9 17 5 9 1018.7 1018.4 0.0
29/05:00am 11.6 10.0 8.6 82 1.5 S 7 13 4 7 1018.6 1018.3 0.0
29/04:30am 10.1 9.5 7.2 82 1.4 CALM 0 2 0 1 1018.6 1018.3 0.0
29/04:00am 12.2 10.7 8.5 78 1.8 SSE 6 9 3 5 1018.6 1018.3 0.0
29/03:30am 12.2 10.4 8.1 76 2.0 S 7 11 4 6 1018.7 1018.4 0.0
29/03:00am 13.2 10.7 8.1 71 2.5 SSE 11 17 6 9 1018.8 1018.5 0.0
29/02:30am 13.3 10.0 8.0 70 2.6 SE 15 22 8 12 1019.0 1018.8 0.0
29/02:00am 13.1 10.6 8.0 71 2.5 SE 11 17 6 9 1019.2 1019.0 0.0
29/01:30am 13.5 10.7 8.4 71 2.6 SE 13 22 7 12 1019.2 1019.0 0.0
29/01:00am 14.3 10.1 8.3 67 3.0 SE 20 28 11 15 1019.3 1019.1 0.0
29/12:30am 14.4 10.4 8.1 66 3.2 SE 19 32 10 17 1019.3 1019.1 0.0
 
Date/Time
EDT
Tmp

°C
App
Tmp
°C
Dew
Point
°C
Rel
Hum
%
Delta-T

°C
Wind Press
QNH
hPa
Press
MSL
hPa
Rain
since
9 am
mm
Dir
 
Spd
km/h
Gust
km/h
Spd
kts
Gust
kts
28/11:30pm 15.3 10.2 7.8 61 3.8 SE 24 39 13 21 1019.4 1019.2 0.0
28/11:00pm 15.6 10.6 7.9 60 3.9 SE 24 35 13 19 1019.3 1019.1 0.0
28/10:30pm 16.2 11.2 7.9 58 4.2 SE 24 39 13 21 1019.2 1019.0 0.0
28/10:00pm 16.1 12.3 7.6 57 4.3 SE 17 30 9 16 1019.1 1018.9 0.0
28/09:30pm 17.3 13.1 7.4 52 5.0 SE 19 32 10 17 1018.8 1018.5 0.0
28/09:00pm 17.8 14.3 7.2 50 5.3 SE 15 22 8 12 1018.4 1018.1 0.0
28/08:30pm 18.5 13.2 6.7 46 5.9 SE 24 37 13 20 1018.1 1017.8 0.0
28/08:00pm 19.7 14.8 7.1 44 6.4 SE 22 33 12 18 1017.9 1017.6 0.0
28/07:30pm 20.9 15.7 7.2 41 7.0 SE 24 41 13 22 1017.6 1017.3 0.0
28/07:00pm 21.7 16.0 6.8 38 7.6 SE 26 39 14 21 1017.3 1017.0 0.0
28/06:34pm 22.5 16.4 6.7 36 8.1 SE 28 46 15 25 1017.0 1016.7 0.0
28/06:30pm 22.7 17.5 7.3 37 8.0 SE 24 41 13 22 1016.9 1016.6 0.0
28/06:00pm 23.5 17.6 7.6 36 8.3 SE 28 43 15 23 1016.8 1016.5 0.0
28/05:30pm 22.6 15.8 6.8 36 8.1 SE 32 44 17 24 1016.6 1016.3 0.0
28/05:20pm 23.7 17.9 7.8 36 8.4 SE 28 46 15 25 1016.5 1016.2 0.0
28/05:00pm 23.1 16.5 7.6 37 8.1 SE 32 48 17 26 1016.6 1016.3 0.0
28/04:32pm 24.3 18.7 8.7 37 8.4 SE 28 46 15 25 1016.6 1016.3 0.0
28/04:30pm 23.6 18.4 8.8 39 8.0 SE 26 46 14 25 1016.3 1016.0 0.0
28/04:00pm 23.5 18.1 8.0 37 8.2 ESE 26 44 14 24 1016.4 1016.1 0.0
28/03:30pm 25.4 19.8 8.8 35 9.0 ESE 28 41 15 22 1016.7 1016.4 0.0
28/03:00pm 24.6 18.8 9.3 38 8.3 SE 30 43 16 23 1016.7 1016.4 0.0
28/02:35pm 24.2 17.8 8.6 37 8.4 SSE 32 52 17 28 1016.8 1016.5 0.0
28/02:30pm 24.5 18.5 10.0 40 8.0 SSE 32 46 17 25 1016.8 1016.5 0.0
28/02:00pm 24.7 18.7 8.6 36 8.7 SE 30 43 16 23 1016.9 1016.6 0.0
28/01:30pm 23.9 17.7 7.9 36 8.5 SE 30 43 16 23 1016.9 1016.6 0.0
28/01:00pm 23.8 17.9 7.4 35 8.6 SE 28 41 15 22 1017.1 1016.8 0.0
28/12:30pm 23.8 18.4 9.4 40 7.8 SE 28 48 15 26 1017.0 1016.7 0.0
28/12:02pm 22.7 17.8 9.8 44 7.0 SSE 26 46 14 25 1017.1 1016.8 0.0
28/12:00pm 22.4 17.8 9.6 44 6.9 SSE 24 39 13 21 1017.0 1016.7 0.0
28/11:30am 22.2 16.9 10.0 46 6.7 SE 28 43 15 23 1017.1 1016.8 0.0
28/11:00am 21.7 16.5 10.2 48 6.3 SE 28 41 15 22 1017.3 1017.0 0.0
28/10:30am 20.8 16.3 10.0 50 5.8 SE 24 35 13 19 1017.5 1017.2 0.0
28/10:00am 19.6 15.3 9.5 52 5.4 SE 22 35 12 19 1017.6 1017.3 0.0
28/09:30am 18.8 14.5 9.3 54 5.0 SE 22 33 12 18 1017.5 1017.2 0.0
28/09:00am 18.0 13.0 9.4 57 4.5 SE 26 39 14 21 1017.4 1017.1 0.0
28/08:30am 16.9 12.6 9.3 61 4.0 SE 22 35 12 19 1017.2 1016.9 0.0
28/08:00am 15.5 11.5 9.2 66 3.2 SE 20 26 11 14 1017.0 1016.7 0.0
28/07:30am 14.5 11.8 8.9 69 2.9 SE 13 20 7 11 1016.8 1016.5 0.0
28/07:00am 13.5 11.5 8.8 73 2.4 SSE 9 20 5 11 1016.6 1016.3 0.0
28/06:30am 13.7 10.6 8.7 72 2.5 SSE 15 24 8 13 1016.1 1015.8 0.0
28/06:00am 13.8 10.6 8.4 70 2.7 SSE 15 22 8 12 1016.2 1015.9 0.0
28/05:30am 13.9 10.7 8.5 70 2.7 SSE 15 30 8 16 1016.1 1015.8 0.0
28/05:00am 13.9 10.7 8.5 70 2.7 SSE 15 22 8 12 1016.0 1015.7 0.0
28/04:30am 13.6 10.5 8.7 72 2.5 SSE 15 20 8 11 1016.1 1015.8 0.0
28/04:00am 13.4 10.6 8.7 73 2.4 SSE 13 22 7 12 1016.0 1015.7 0.0
28/03:30am 13.4 10.6 8.7 73 2.4 SSE 13 20 7 11 1016.1 1015.8 0.0
28/03:00am 13.2 10.4 8.5 73 2.4 S 13 19 7 10 1016.3 1016.0 0.0
28/02:30am 13.5 10.3 8.6 72 2.5 S 15 22 8 12 1016.5 1016.2 0.0
28/02:00am 13.5 10.3 8.6 72 2.5 S 15 26 8 14 1016.7 1016.4 0.0
28/01:30am 13.6 10.1 8.9 73 2.4 S 17 24 9 13 1017.0 1016.7 0.0
28/01:00am 13.6 10.9 8.9 73 2.4 S 13 20 7 11 1017.1 1016.8 0.0
28/12:30am 13.7 10.6 8.7 72 2.5 S 15 26 8 14 1017.4 1017.1 0.0
28/12:00am 13.7 11.3 8.5 71 2.6 S 11 19 6 10 1017.7 1017.4 0.0
 
Date/Time
EDT
Tmp

°C
App
Tmp
°C
Dew
Point
°C
Rel
Hum
%
Delta-T

°C
Wind Press
QNH
hPa
Press
MSL
hPa
Rain
since
9 am
mm
Dir
 
Spd
km/h
Gust
km/h
Spd
kts
Gust
kts
27/11:30pm 13.9 11.0 8.3 69 2.8 S 13 24 7 13 1017.7 1017.4 0.0
27/11:00pm 14.1 10.9 8.3 68 2.9 SSE 15 24 8 13 1017.8 1017.5 0.0
27/10:30pm 14.3 11.4 8.0 66 3.1 S 13 20 7 11 1017.7 1017.4 0.0
27/10:00pm 14.9 11.6 8.2 64 3.4 S 15 26 8 14 1017.5 1017.2 0.0
27/09:30pm 15.3 12.0 8.1 62 3.6 S 15 26 8 14 1017.3 1017.0 0.0
27/09:00pm 15.4 12.5 8.2 62 3.6 S 13 20 7 11 1017.0 1016.7 0.0
27/08:30pm 16.0 12.7 8.0 59 4.0 S 15 28 8 15 1016.8 1016.5 0.0
27/08:00pm 16.8 12.7 8.5 58 4.3 S 20 35 11 19 1016.5 1016.2 0.0
27/07:30pm 17.6 13.5 8.5 55 4.7 S 20 32 11 17 1016.2 1015.9 0.0
27/07:00pm 18.1 13.5 8.1 52 5.1 SSE 22 39 12 21 1016.0 1015.7 0.0
27/06:30pm 18.5 13.5 8.2 51 5.3 SSE 24 35 13 19 1015.7 1015.4 0.0
27/06:00pm 18.8 14.0 9.0 53 5.1 SSE 24 41 13 22 1015.6 1015.3 0.0
27/05:30pm 19.0 14.2 8.9 52 5.3 SSE 24 39 13 21 1015.5 1015.2 0.0
27/05:00pm 18.8 14.0 9.0 53 5.1 SSE 24 39 13 21 1015.7 1015.4 0.0
27/04:30pm 19.3 14.5 8.9 51 5.5 S 24 37 13 20 1015.8 1015.5 0.0
27/04:00pm 18.5 14.1 9.0 54 5.0 S 22 35 12 19 1015.8 1015.5 0.0
27/03:30pm 18.8 14.4 9.0 53 5.1 SSE 22 35 12 19 1016.0 1015.7 0.0
27/03:00pm 19.4 15.5 9.3 52 5.3 S 20 33 11 18 1016.0 1015.7 0.0
27/02:30pm 19.2 15.1 8.5 50 5.6 SSE 20 32 11 17 1016.0 1015.7 0.0
27/02:00pm 18.7 14.4 7.8 49 5.6 SSE 20 33 11 18 1016.3 1016.0 0.0
27/01:30pm 20.9 16.4 10.1 50 5.9 SSE 24 41 13 22 1016.3 1016.0 0.0
27/01:00pm 18.6 14.3 7.7 49 5.6 SSE 20 33 11 18 1016.4 1016.1 0.0
27/12:30pm 19.7 15.8 9.3 51 5.5 SSE 20 37 11 20 1016.7 1016.4 0.0
27/12:00pm 18.7 14.6 8.7 52 5.2 SSE 20 32 11 17 1016.7 1016.4 0.0
27/11:30am 20.3 15.8 8.6 47 6.1 SSE 22 33 12 18 1016.7 1016.4 0.0
27/11:00am 18.3 14.6 8.0 51 5.3 SSE 17 26 9 14 1016.7 1016.4 0.0
27/10:30am 19.2 15.6 8.5 50 5.6 SSE 17 33 9 18 1016.7 1016.4 0.0
27/10:00am 17.5 12.7 7.5 52 5.0 SSE 22 32 12 17 1016.8 1016.5 0.0
27/09:30am 17.0 12.3 7.6 54 4.7 SSE 22 35 12 19 1016.7 1016.4 0.0
27/09:00am 16.6 12.2 7.5 55 4.6 SE 20 33 11 18 1016.8 1016.5 0.2
27/08:30am 15.8 11.7 7.8 59 4.0 SE 19 33 10 18 1016.6 1016.3 0.2
27/08:00am 14.4 11.0 7.5 63 3.4 SSE 15 22 8 12 1016.5 1016.2 0.2
27/07:30am 13.3 10.6 7.3 67 2.9 SSE 11 19 6 10 1016.2 1015.9 0.2
27/07:00am 12.0 9.2 7.1 72 2.4 SSE 11 19 6 10 1015.9 1015.6 0.2
27/06:30am 11.7 8.5 6.8 72 2.3 SSE 13 17 7 9 1015.8 1015.5 0.2
27/06:00am 12.1 8.9 6.8 70 2.5 SSE 13 20 7 11 1015.5 1015.2 0.2
27/05:30am 12.3 9.0 6.6 68 2.7 SSE 13 22 7 12 1015.4 1015.1 0.2
27/05:00am 12.5 8.8 6.5 67 2.9 SSE 15 22 8 12 1015.2 1014.9 0.2
27/04:30am 12.5 8.8 6.3 66 3.0 SSE 15 20 8 11 1015.1 1014.8 0.2
27/04:00am 12.8 9.1 6.4 65 3.1 SSE 15 24 8 13 1015.2 1014.9 0.2
27/03:30am 12.9 8.8 6.3 64 3.2 SSE 17 26 9 14 1015.6 1015.3 0.2
27/03:00am 12.7 8.6 6.1 64 3.1 SSE 17 26 9 14 1015.6 1015.3 0.2
27/02:30am 12.2 8.8 5.8 65 3.0 SSE 13 20 7 11 1015.9 1015.6 0.2
27/02:00am 12.5 9.1 5.9 64 3.1 SSE 13 20 7 11 1016.2 1015.9 0.2
27/01:30am 12.9 9.5 5.8 62 3.4 SSE 13 26 7 14 1016.6 1016.3 0.2
27/01:00am 13.2 9.0 5.6 60 3.6 SSE 17 26 9 14 1016.8 1016.5 0.2
27/12:30am 13.4 7.4 5.3 58 3.8 SSE 26 37 14 20 1016.7 1016.4 0.2
27/12:00am 13.5 10.0 5.4 58 3.8 SSE 13 22 7 12 1016.9 1016.6 0.2
 
Date/Time
EDT
Tmp

°C
App
Tmp
°C
Dew
Point
°C
Rel
Hum
%
Delta-T

°C
Wind Press
QNH
hPa
Press
MSL
hPa
Rain
since
9 am
mm
Dir
 
Spd
km/h
Gust
km/h
Spd
kts
Gust
kts
26/11:30pm 13.5 9.3 5.7 59 3.7 SSE 17 28 9 15 1016.9 1016.6 0.2

Latest Capital City Observations: Canberra | Sydney | Melbourne | Brisbane | Adelaide | Perth | Hobart | Darwin

Other Formats:

Comma delimited format used in spreadsheet applications
http://www.bom.gov.au/fwo/IDV60901/IDV60901.94864.axf

JavaScript Object Notation format (JSON) in row-major order
http://www.bom.gov.au/fwo/IDV60901/IDV60901.94864.json